createdAt,value
2018-06-30T00:00:28.360Z,18.00
2018-06-30T00:02:56.532Z,17.90
2018-06-30T00:05:24.682Z,17.90
2018-06-30T00:07:53.020Z,17.70
2018-06-30T00:10:28.135Z,17.70
2018-06-30T00:12:56.718Z,17.70
2018-06-30T00:15:24.894Z,17.70
2018-06-30T00:17:53.043Z,17.70
2018-06-30T00:20:21.248Z,17.60
2018-06-30T00:22:49.432Z,17.60
2018-06-30T00:25:17.607Z,17.60
2018-06-30T00:27:45.775Z,17.60
2018-06-30T00:30:13.931Z,17.50
2018-06-30T00:35:10.032Z,17.30
2018-06-30T00:37:38.197Z,17.20
2018-06-30T00:40:06.357Z,17.10
2018-06-30T00:42:34.548Z,17.10
2018-06-30T00:45:02.716Z,17.00
2018-06-30T00:47:30.892Z,17.00
2018-06-30T00:49:59.084Z,17.20
2018-06-30T00:52:27.233Z,17.00
2018-06-30T00:54:55.412Z,17.00
2018-06-30T00:57:23.575Z,17.00
2018-06-30T00:59:51.812Z,17.00
2018-06-30T01:04:47.967Z,17.10
2018-06-30T01:07:16.162Z,17.10
2018-06-30T01:09:44.363Z,17.00
2018-06-30T01:12:12.570Z,16.90
2018-06-30T01:17:08.714Z,16.70
2018-06-30T01:22:04.855Z,16.50
2018-06-30T01:24:33.068Z,16.50
2018-06-30T01:27:01.293Z,16.50
2018-06-30T01:29:29.494Z,16.50
2018-06-30T01:31:57.682Z,16.50
2018-06-30T01:34:25.883Z,16.50
2018-06-30T01:36:54.086Z,16.60
2018-06-30T01:39:22.291Z,16.60
2018-06-30T01:44:18.437Z,16.50
2018-06-30T01:46:46.649Z,16.60
2018-06-30T01:49:14.867Z,16.60
2018-06-30T01:51:43.054Z,16.60
2018-06-30T01:56:39.201Z,16.50
2018-06-30T02:01:35.330Z,16.40
2018-06-30T02:04:03.539Z,16.30
2018-06-30T02:06:31.738Z,16.30
2018-06-30T02:08:59.960Z,16.20
2018-06-30T02:11:28.666Z,16.20
2018-06-30T02:13:56.887Z,16.20
2018-06-30T02:16:25.079Z,16.30
2018-06-30T02:18:53.295Z,16.30
2018-06-30T02:21:21.474Z,16.30
2018-06-30T02:23:49.694Z,16.30
2018-06-30T02:26:17.904Z,16.40
2018-06-30T02:28:46.144Z,16.30
2018-06-30T02:31:14.354Z,16.20
2018-06-30T02:33:42.551Z,16.20
2018-06-30T02:36:10.797Z,16.10
2018-06-30T02:41:07.004Z,16.00
2018-06-30T02:43:35.209Z,15.90
2018-06-30T02:48:31.367Z,15.90
2018-06-30T02:50:59.555Z,15.90
2018-06-30T02:53:27.951Z,15.80
2018-06-30T02:55:56.167Z,15.70
2018-06-30T02:58:24.374Z,16.10
2018-06-30T03:00:52.592Z,15.60
2018-06-30T03:03:20.787Z,15.70
2018-06-30T03:05:48.986Z,15.80
2018-06-30T03:08:17.183Z,15.70
2018-06-30T03:10:45.400Z,15.50
2018-06-30T03:13:13.593Z,15.50
2018-06-30T03:18:09.733Z,15.60
2018-06-30T03:20:37.927Z,15.60
2018-06-30T03:23:06.469Z,15.50
2018-06-30T03:25:34.735Z,15.50
2018-06-30T03:28:02.951Z,15.40
2018-06-30T03:32:59.091Z,15.40
2018-06-30T03:37:55.243Z,15.40
2018-06-30T03:40:23.450Z,15.40
2018-06-30T03:42:51.661Z,15.40
2018-06-30T03:45:20.407Z,15.40
2018-06-30T03:47:48.600Z,15.40
2018-06-30T03:50:16.804Z,15.40
2018-06-30T03:52:45.010Z,15.30
2018-06-30T03:55:13.211Z,15.40
2018-06-30T03:57:41.400Z,15.70
2018-06-30T04:00:09.611Z,15.50
2018-06-30T04:02:37.809Z,15.40
2018-06-30T04:05:06.115Z,15.50
2018-06-30T04:07:34.507Z,15.50
2018-06-30T04:10:02.719Z,15.60
2018-06-30T04:14:58.897Z,15.70
2018-06-30T04:17:27.154Z,15.70
2018-06-30T04:19:55.351Z,15.70
2018-06-30T04:22:23.553Z,15.80
2018-06-30T04:24:51.765Z,15.90
2018-06-30T04:27:19.974Z,15.90
2018-06-30T04:29:48.161Z,16.00
2018-06-30T04:32:16.353Z,16.00
2018-06-30T04:34:44.577Z,16.00
2018-06-30T04:37:12.770Z,16.00
2018-06-30T04:39:40.997Z,15.90
2018-06-30T04:42:09.397Z,15.90
2018-06-30T04:44:37.621Z,16.00
2018-06-30T04:47:05.891Z,16.00
2018-06-30T04:49:34.088Z,16.00
2018-06-30T04:52:02.332Z,16.00
2018-06-30T04:54:30.523Z,16.10
2018-06-30T04:56:58.724Z,16.10
2018-06-30T04:59:26.899Z,16.20
2018-06-30T05:01:55.051Z,16.10
2018-06-30T05:04:23.205Z,16.10
2018-06-30T05:06:51.371Z,16.10
2018-06-30T05:09:19.545Z,16.20
2018-06-30T05:11:47.704Z,16.40
2018-06-30T05:14:15.854Z,16.50
2018-06-30T05:16:44.045Z,16.70
2018-06-30T05:19:12.199Z,16.90
2018-06-30T05:21:40.354Z,17.10
2018-06-30T05:24:08.502Z,17.30
2018-06-30T05:26:36.646Z,17.50
2018-06-30T05:29:04.846Z,17.80
2018-06-30T05:31:33.006Z,17.90
2018-06-30T05:34:01.159Z,18.10
2018-06-30T05:36:29.310Z,18.30
2018-06-30T05:38:57.438Z,18.50
2018-06-30T05:41:25.594Z,18.70
2018-06-30T05:43:53.756Z,18.90
2018-06-30T05:46:21.937Z,19.10
2018-06-30T05:48:50.077Z,19.40
2018-06-30T05:51:18.235Z,19.50
2018-06-30T05:56:14.300Z,20.00
2018-06-30T05:58:42.501Z,20.20
2018-06-30T06:01:10.719Z,20.20
2018-06-30T06:03:38.921Z,20.70
2018-06-30T06:06:07.217Z,20.30
2018-06-30T06:08:35.403Z,20.60
2018-06-30T06:11:03.600Z,20.70
2018-06-30T06:13:31.789Z,21.00
2018-06-30T06:15:59.979Z,21.20
2018-06-30T06:20:56.124Z,21.60
2018-06-30T06:23:24.328Z,21.80
2018-06-30T06:25:52.518Z,22.00
2018-06-30T06:28:20.722Z,22.20
2018-06-30T06:30:48.919Z,22.20
2018-06-30T06:35:45.107Z,22.40
2018-06-30T06:38:13.300Z,22.60
2018-06-30T06:40:41.515Z,22.70
2018-06-30T06:43:09.890Z,22.80
2018-06-30T06:45:38.098Z,22.90
2018-06-30T06:48:06.833Z,22.90
2018-06-30T06:50:35.358Z,23.00
2018-06-30T06:53:03.555Z,23.10
2018-06-30T06:55:31.744Z,23.20
2018-06-30T06:57:59.949Z,23.40
2018-06-30T07:00:28.184Z,23.40
2018-06-30T07:02:56.369Z,23.60
2018-06-30T07:05:24.577Z,24.00
2018-06-30T07:07:52.779Z,23.90
2018-06-30T07:10:20.966Z,24.20
2018-06-30T07:12:49.212Z,24.30
2018-06-30T07:15:17.399Z,24.30
2018-06-30T07:17:45.654Z,24.60
2018-06-30T07:20:13.856Z,24.70
2018-06-30T07:22:42.123Z,25.00
2018-06-30T07:25:10.317Z,25.10
2018-06-30T07:27:38.550Z,25.10
2018-06-30T07:32:34.810Z,25.30
2018-06-30T07:35:04.490Z,25.40
2018-06-30T07:40:00.780Z,25.80
2018-06-30T07:42:28.977Z,25.70
2018-06-30T07:44:57.204Z,25.80
2018-06-30T07:49:53.343Z,26.00
2018-06-30T07:52:21.715Z,26.20
2018-06-30T07:54:50.619Z,26.40
2018-06-30T07:57:18.760Z,26.40
2018-06-30T07:59:46.909Z,26.30
2018-06-30T08:02:15.265Z,26.40
2018-06-30T08:04:43.424Z,26.70
2018-06-30T08:07:11.576Z,26.90
2018-06-30T08:09:40.071Z,26.80
2018-06-30T08:12:08.243Z,26.80
2018-06-30T08:14:36.476Z,26.90
2018-06-30T08:17:04.647Z,27.00
2018-06-30T08:19:32.848Z,27.00
2018-06-30T08:22:01.007Z,27.10
2018-06-30T08:24:29.152Z,27.30
2018-06-30T08:26:57.290Z,27.40
2018-06-30T08:29:25.532Z,27.40
2018-06-30T08:31:53.620Z,27.50
2018-06-30T08:34:21.785Z,27.60
2018-06-30T08:39:17.881Z,27.80
2018-06-30T08:41:46.048Z,27.80
2018-06-30T08:44:14.212Z,27.80
2018-06-30T08:46:42.351Z,28.10
2018-06-30T08:49:10.513Z,28.10
2018-06-30T08:51:38.661Z,28.00
2018-06-30T08:54:06.794Z,28.10
2018-06-30T08:56:34.977Z,28.20
2018-06-30T08:59:03.129Z,28.20
2018-06-30T09:01:31.279Z,28.10
2018-06-30T09:03:59.438Z,28.50
2018-06-30T09:06:27.655Z,28.50
2018-06-30T09:08:55.771Z,28.70
2018-06-30T09:11:23.925Z,28.40
2018-06-30T09:13:52.342Z,28.40
2018-06-30T09:16:20.490Z,28.40
2018-06-30T09:18:48.641Z,28.50
2018-06-30T09:21:16.797Z,28.60
2018-06-30T09:23:44.950Z,28.60
2018-06-30T09:26:13.097Z,28.80
2018-06-30T09:28:41.238Z,28.90
2018-06-30T09:31:09.400Z,28.90
2018-06-30T09:33:37.557Z,28.70
2018-06-30T09:36:05.948Z,28.60
2018-06-30T09:38:34.118Z,28.60
2018-06-30T09:41:02.265Z,28.50
2018-06-30T09:43:30.561Z,28.50
2018-06-30T09:45:58.728Z,28.40
2018-06-30T09:48:26.874Z,28.30
2018-06-30T09:50:55.068Z,28.30
2018-06-30T09:53:23.194Z,28.30
2018-06-30T09:55:51.357Z,28.20
2018-06-30T09:58:19.508Z,28.10
2018-06-30T10:00:54.881Z,28.10
2018-06-30T10:03:23.827Z,27.90
2018-06-30T10:08:19.889Z,27.80
2018-06-30T10:10:48.104Z,27.80
2018-06-30T10:13:16.249Z,27.70
2018-06-30T10:15:44.417Z,27.70
2018-06-30T10:18:12.559Z,27.90
2018-06-30T10:23:08.625Z,28.00
2018-06-30T10:25:36.795Z,28.20
2018-06-30T10:28:05.001Z,28.20
2018-06-30T10:30:33.160Z,28.40
2018-06-30T10:33:01.316Z,28.60
2018-06-30T10:35:29.482Z,28.80
2018-06-30T10:37:57.621Z,28.90
2018-06-30T10:40:25.777Z,29.10
2018-06-30T10:42:53.924Z,29.20
2018-06-30T10:45:22.065Z,29.00
2018-06-30T10:47:50.203Z,29.10
2018-06-30T10:50:18.369Z,29.00
2018-06-30T10:52:46.523Z,29.10
2018-06-30T10:55:14.666Z,29.10
2018-06-30T10:57:42.817Z,28.90
2018-06-30T11:00:11.093Z,28.80
2018-06-30T11:02:39.341Z,28.80
2018-06-30T11:05:07.658Z,28.90
2018-06-30T11:07:35.805Z,28.90
2018-06-30T11:10:04.009Z,29.30
2018-06-30T11:12:32.243Z,29.20
2018-06-30T11:15:00.459Z,29.20
2018-06-30T11:17:28.682Z,29.30
2018-06-30T11:19:56.860Z,29.20
2018-06-30T11:22:25.093Z,29.10
2018-06-30T11:27:21.260Z,29.00
2018-06-30T11:29:49.468Z,29.00
2018-06-30T11:32:17.666Z,28.90
2018-06-30T11:34:45.896Z,28.80
2018-06-30T11:37:14.095Z,28.80
2018-06-30T11:39:42.285Z,28.70
2018-06-30T11:42:10.554Z,28.70
2018-06-30T11:47:06.896Z,28.70
2018-06-30T11:49:35.192Z,28.70
2018-06-30T11:52:03.390Z,28.70
2018-06-30T11:54:31.600Z,28.70
2018-06-30T11:56:59.816Z,28.70
2018-06-30T11:59:28.033Z,28.60
2018-06-30T12:01:56.412Z,28.50
2018-06-30T12:04:24.626Z,28.40
2018-06-30T12:09:20.870Z,28.40
2018-06-30T12:11:49.010Z,28.10
2018-06-30T12:14:17.205Z,28.30
2018-06-30T12:16:45.435Z,28.40
2018-06-30T12:19:13.657Z,28.40
2018-06-30T12:21:41.882Z,28.30
2018-06-30T12:24:10.079Z,28.30
2018-06-30T12:26:38.354Z,28.30
2018-06-30T12:29:06.715Z,28.40
2018-06-30T12:31:34.926Z,28.50
2018-06-30T12:34:03.139Z,28.70
2018-06-30T12:36:31.360Z,28.80
2018-06-30T12:38:59.590Z,28.80
2018-06-30T12:41:27.803Z,28.70
2018-06-30T12:43:56.015Z,28.60
2018-06-30T12:46:24.232Z,28.40
2018-06-30T12:48:52.442Z,28.50
2018-06-30T12:51:20.658Z,28.50
2018-06-30T12:53:48.859Z,28.60
2018-06-30T12:56:17.057Z,28.50
2018-06-30T12:58:45.219Z,28.50
2018-06-30T13:01:13.391Z,28.50
2018-06-30T13:03:41.585Z,28.50
2018-06-30T13:06:09.706Z,28.40
2018-06-30T13:08:37.877Z,28.30
2018-06-30T13:11:06.028Z,27.90
2018-06-30T13:16:02.090Z,28.10
2018-06-30T13:18:30.231Z,28.30
2018-06-30T13:23:26.310Z,27.90
2018-06-30T13:25:54.486Z,28.30
2018-06-30T13:28:22.631Z,28.30
2018-06-30T13:30:50.781Z,28.40
2018-06-30T13:33:18.942Z,28.50
2018-06-30T13:35:47.107Z,28.50
2018-06-30T13:38:15.308Z,28.50
2018-06-30T13:40:43.496Z,28.50
2018-06-30T13:43:11.742Z,28.50
2018-06-30T13:48:07.719Z,28.40
2018-06-30T13:50:35.882Z,28.40
2018-06-30T13:53:04.079Z,28.40
2018-06-30T13:55:32.232Z,28.40
2018-06-30T13:58:00.369Z,28.40
2018-06-30T14:00:28.564Z,28.40
2018-06-30T14:02:56.749Z,28.40
2018-06-30T14:05:25.050Z,28.30
2018-06-30T14:07:53.268Z,28.40
2018-06-30T14:10:21.486Z,28.40
2018-06-30T14:15:17.662Z,28.40
2018-06-30T14:17:45.858Z,28.40
2018-06-30T14:20:14.059Z,28.40
2018-06-30T14:25:10.224Z,28.40
2018-06-30T14:27:38.443Z,28.40
2018-06-30T14:30:09.068Z,28.40
2018-06-30T14:32:37.318Z,28.40
2018-06-30T14:35:05.707Z,28.40
2018-06-30T14:37:33.915Z,28.50
2018-06-30T14:40:02.108Z,28.50
2018-06-30T14:42:30.309Z,28.50
2018-06-30T14:44:58.517Z,28.40
2018-06-30T14:47:26.722Z,28.40
2018-06-30T14:49:54.945Z,28.50
2018-06-30T14:52:23.150Z,28.40
2018-06-30T14:54:51.368Z,28.30
2018-06-30T14:59:47.576Z,28.20
2018-06-30T15:02:15.819Z,28.10
2018-06-30T15:04:43.973Z,28.10
2018-06-30T15:07:12.119Z,28.10
2018-06-30T15:12:08.204Z,27.70
2018-06-30T15:14:36.365Z,27.90
2018-06-30T15:17:04.537Z,27.70
2018-06-30T15:19:32.689Z,27.70
2018-06-30T15:22:00.859Z,27.60
2018-06-30T15:24:29.027Z,27.50
2018-06-30T15:26:57.191Z,27.50
2018-06-30T15:29:25.349Z,27.60
2018-06-30T15:31:53.504Z,27.60
2018-06-30T15:34:21.722Z,27.60
2018-06-30T15:36:49.959Z,27.50
2018-06-30T15:39:18.112Z,27.50
2018-06-30T15:41:46.271Z,27.50
2018-06-30T15:44:14.418Z,27.40
2018-06-30T15:46:42.591Z,27.30
2018-06-30T15:51:38.697Z,27.30
2018-06-30T15:54:06.881Z,27.30
2018-06-30T15:56:35.027Z,27.30
2018-06-30T15:59:03.240Z,27.30
2018-06-30T16:01:31.565Z,27.20
2018-06-30T16:03:59.773Z,27.20
2018-06-30T16:06:27.997Z,27.30
2018-06-30T16:08:56.213Z,27.30
2018-06-30T16:11:24.418Z,27.20
2018-06-30T16:13:52.630Z,27.10
2018-06-30T16:16:20.844Z,27.00
2018-06-30T16:18:49.049Z,27.40
2018-06-30T16:21:17.269Z,26.70
2018-06-30T16:23:45.496Z,27.00
2018-06-30T16:26:13.693Z,27.00
2018-06-30T16:28:41.922Z,26.80
2018-06-30T16:31:10.127Z,26.60
2018-06-30T16:36:06.314Z,26.50
2018-06-30T16:38:34.523Z,26.40
2018-06-30T16:41:02.740Z,26.40
2018-06-30T16:43:30.946Z,26.40
2018-06-30T16:45:59.168Z,26.40
2018-06-30T16:48:27.445Z,26.40
2018-06-30T16:50:55.684Z,26.30
2018-06-30T16:53:23.909Z,26.30
2018-06-30T16:55:52.118Z,26.30
2018-06-30T16:58:20.329Z,26.20
2018-06-30T17:00:48.489Z,26.20
2018-06-30T17:03:16.638Z,26.10
2018-06-30T17:05:44.795Z,26.20
2018-06-30T17:08:13.001Z,26.20
2018-06-30T17:10:41.136Z,26.20
2018-06-30T17:13:09.323Z,26.20
2018-06-30T17:15:37.474Z,26.20
2018-06-30T17:18:05.630Z,26.00
2018-06-30T17:20:33.800Z,26.00
2018-06-30T17:23:01.949Z,26.00
2018-06-30T17:25:30.197Z,26.00
2018-06-30T17:27:58.512Z,26.00
2018-06-30T17:30:27.634Z,25.90
2018-06-30T17:32:55.782Z,25.90
2018-06-30T17:35:23.943Z,25.90
2018-06-30T17:37:52.104Z,25.80
2018-06-30T17:40:20.258Z,25.90
2018-06-30T17:42:48.424Z,25.90
2018-06-30T17:45:16.599Z,25.90
2018-06-30T17:47:44.761Z,25.80
2018-06-30T17:50:13.333Z,25.80
2018-06-30T17:52:41.527Z,25.80
2018-06-30T17:55:09.744Z,25.80
2018-06-30T17:57:37.885Z,25.80
2018-06-30T18:00:06.647Z,25.90
2018-06-30T18:02:34.799Z,25.80
2018-06-30T18:07:30.912Z,25.80
2018-06-30T18:09:59.074Z,25.80
2018-06-30T18:12:27.216Z,25.70
2018-06-30T18:14:55.441Z,25.70
2018-06-30T18:17:23.597Z,25.60
2018-06-30T18:19:51.800Z,25.70
2018-06-30T18:22:20.080Z,25.70
2018-06-30T18:24:48.232Z,25.60
2018-06-30T18:27:16.377Z,25.60
2018-06-30T18:32:12.466Z,25.60
2018-06-30T18:37:08.630Z,25.50
2018-06-30T18:39:36.784Z,25.40
2018-06-30T18:42:04.955Z,25.40
2018-06-30T18:44:33.113Z,25.30
2018-06-30T18:47:01.263Z,25.30
2018-06-30T18:49:29.461Z,25.20
2018-06-30T18:51:57.637Z,25.10
2018-06-30T18:54:26.842Z,25.00
2018-06-30T18:59:23.072Z,24.70
2018-06-30T19:01:51.286Z,24.60
2018-06-30T19:04:19.505Z,24.60
2018-06-30T19:06:47.709Z,24.50
2018-06-30T19:09:15.940Z,24.50
2018-06-30T19:11:44.122Z,24.40
2018-06-30T19:14:12.327Z,24.30
2018-06-30T19:16:40.522Z,24.20
2018-06-30T19:19:08.732Z,24.20
2018-06-30T19:21:36.958Z,24.10
2018-06-30T19:26:33.280Z,24.00
2018-06-30T19:29:01.477Z,23.80
2018-06-30T19:33:57.674Z,23.70
2018-06-30T19:36:25.908Z,23.50
2018-06-30T19:38:54.091Z,23.40
2018-06-30T19:41:22.332Z,23.30
2018-06-30T19:43:50.570Z,23.20
2018-06-30T19:46:18.788Z,23.10
2018-06-30T19:48:47.003Z,23.00
2018-06-30T19:51:15.224Z,23.00
2018-06-30T19:53:43.440Z,22.90
2018-06-30T19:56:11.664Z,22.80
2018-06-30T19:58:39.877Z,22.70
2018-06-30T20:01:08.092Z,22.70
2018-06-30T20:03:36.286Z,22.70
2018-06-30T20:06:04.521Z,22.70
2018-06-30T20:08:32.736Z,22.60
2018-06-30T20:11:00.972Z,22.50
2018-06-30T20:13:29.214Z,22.50
2018-06-30T20:15:57.424Z,22.50
2018-06-30T20:18:25.615Z,22.50
2018-06-30T20:20:53.848Z,22.40
2018-06-30T20:23:22.051Z,22.30
2018-06-30T20:25:50.267Z,22.30
2018-06-30T20:28:18.488Z,22.20
2018-06-30T20:30:46.698Z,22.20
2018-06-30T20:33:14.907Z,22.10
2018-06-30T20:35:43.129Z,22.00
2018-06-30T20:38:11.326Z,22.00
2018-06-30T20:40:39.552Z,21.90
2018-06-30T20:43:07.763Z,21.80
2018-06-30T20:45:35.974Z,21.80
2018-06-30T20:48:04.577Z,21.70
2018-06-30T20:53:00.718Z,21.60
2018-06-30T20:55:28.947Z,21.50
2018-06-30T20:57:57.288Z,21.50
2018-06-30T21:00:25.503Z,21.50
2018-06-30T21:02:53.702Z,21.40
2018-06-30T21:05:21.925Z,21.40
2018-06-30T21:07:50.637Z,21.40
2018-06-30T21:10:18.854Z,21.30
2018-06-30T21:17:43.015Z,21.20
2018-06-30T21:20:11.228Z,21.10
2018-06-30T21:22:39.969Z,20.90
2018-06-30T21:25:08.190Z,20.90
2018-06-30T21:27:36.405Z,21.00
2018-06-30T21:30:05.137Z,21.00
2018-06-30T21:32:33.342Z,20.80
2018-06-30T21:37:29.500Z,20.70
2018-06-30T21:39:57.694Z,20.60
2018-06-30T21:42:25.927Z,20.60
2018-06-30T21:47:22.047Z,20.50
2018-06-30T21:49:50.252Z,20.50
2018-06-30T21:52:18.462Z,20.50
2018-06-30T21:54:46.670Z,20.40
2018-06-30T21:57:14.877Z,20.40
2018-06-30T21:59:43.469Z,20.40
2018-06-30T22:02:11.636Z,20.40
2018-06-30T22:04:39.784Z,20.40
2018-06-30T22:07:07.944Z,20.40
2018-06-30T22:09:36.103Z,20.40
2018-06-30T22:12:04.264Z,20.30
2018-06-30T22:14:32.412Z,20.30
2018-06-30T22:17:01.388Z,20.30
2018-06-30T22:19:29.539Z,20.20
2018-06-30T22:21:57.695Z,20.00
2018-06-30T22:24:25.855Z,20.20
2018-06-30T22:26:54.153Z,20.40
2018-06-30T22:29:22.309Z,20.10
2018-06-30T22:31:50.475Z,19.90
2018-06-30T22:34:18.625Z,19.90
2018-06-30T22:36:46.769Z,19.90
2018-06-30T22:41:47.439Z,19.70
2018-06-30T22:44:15.607Z,19.70
2018-06-30T22:46:43.754Z,19.70
2018-06-30T22:51:39.840Z,19.70
2018-06-30T22:54:07.992Z,19.70
2018-06-30T22:56:36.133Z,19.60
2018-06-30T22:59:04.383Z,19.60
2018-06-30T23:01:32.601Z,19.60
2018-06-30T23:06:28.742Z,19.50
2018-06-30T23:11:24.969Z,19.40
2018-06-30T23:13:53.176Z,19.40
2018-06-30T23:16:21.366Z,19.30
2018-06-30T23:18:49.575Z,19.30
2018-06-30T23:21:17.858Z,19.30
2018-06-30T23:23:46.063Z,19.10
2018-06-30T23:28:42.232Z,19.10
2018-06-30T23:31:10.446Z,19.10
2018-06-30T23:33:38.673Z,19.10
2018-06-30T23:36:06.886Z,19.00
2018-06-30T23:38:35.097Z,18.90
2018-06-30T23:41:03.320Z,18.90
2018-06-30T23:43:31.544Z,18.80
2018-06-30T23:48:27.687Z,18.80
2018-06-30T23:53:23.898Z,18.80
2018-06-30T23:55:52.101Z,18.70
2018-06-30T23:58:20.330Z,18.60
